Time;durP1;ratioP1;P1;durP2;ratioP2;P2;SDS_P1;SDS_P2;PMS_P1;PMS_P2;Temp;Humidity;BMP_temperature;BMP_pressure;BME280_temperature;BME280_humidity;BME280_pressure;Samples;Min_cycle;Max_cycle;Signal;HPM_P1;HPM_P2
2022/07/18 00:00:46;;;;;;;0.90;0.90;;;20.30;99.30;;;;;;5055511;28;20298;-62
2022/07/18 00:03:15;;;;;;;0.70;0.70;;;20.30;99.30;;;;;;5065449;28;20310;-61
2022/07/18 00:05:41;;;;;;;0.70;0.70;;;20.20;99.30;;;;;;5056610;28;20716;-61
2022/07/18 00:08:08;;;;;;;0.70;0.70;;;20.30;99.30;;;;;;5060377;28;20228;-62
2022/07/18 00:10:35;;;;;;;0.70;0.70;;;20.20;99.30;;;;;;5066878;28;20319;-62
2022/07/18 00:13:02;;;;;;;0.80;0.80;;;20.20;99.30;;;;;;5053832;28;20940;-62
2022/07/18 00:15:29;;;;;;;0.70;0.70;;;20.10;99.30;;;;;;5068217;28;20246;-61
2022/07/18 00:17:56;;;;;;;1.38;0.82;;;20.10;99.30;;;;;;5063202;28;20295;-62
2022/07/18 00:20:24;;;;;;;0.60;0.60;;;20.10;99.20;;;;;;5059501;28;20239;-61
2022/07/18 00:22:51;;;;;;;0.70;0.70;;;20.10;99.30;;;;;;5064657;28;20350;-61
2022/07/18 00:25:18;;;;;;;0.57;0.57;;;20.00;99.40;;;;;;5059887;28;20254;-61
2022/07/18 00:27:45;;;;;;;0.68;0.68;;;20.00;99.40;;;;;;5066686;28;20569;-61
2022/07/18 00:30:12;;;;;;;0.80;0.80;;;20.00;99.50;;;;;;5060975;28;20611;-61
2022/07/18 00:32:39;;;;;;;0.70;0.70;;;19.90;99.40;;;;;;5067806;28;20207;-61
2022/07/18 00:35:08;;;;;;;0.85;0.85;;;19.90;99.50;;;;;;5059811;28;20647;-61
2022/07/18 00:37:36;;;;;;;0.80;0.80;;;19.80;99.50;;;;;;5060141;28;20571;-61
2022/07/18 00:40:04;;;;;;;0.68;0.68;;;19.80;99.50;;;;;;5064521;28;20200;-61
2022/07/18 00:42:31;;;;;;;0.88;0.88;;;19.80;99.50;;;;;;5051448;28;20319;-61
2022/07/18 00:44:58;;;;;;;0.70;0.70;;;19.80;99.40;;;;;;5059691;28;20230;-60
2022/07/18 00:47:25;;;;;;;0.80;0.80;;;19.70;99.40;;;;;;5058446;28;20298;-61
2022/07/18 00:49:52;;;;;;;0.77;0.77;;;19.80;99.50;;;;;;5061398;28;20321;-61
2022/07/18 00:52:19;;;;;;;0.80;0.80;;;19.70;99.60;;;;;;5061347;28;20301;-61
2022/07/18 00:54:47;;;;;;;0.70;0.70;;;19.70;99.40;;;;;;5053595;28;20222;-61
2022/07/18 00:57:14;;;;;;;0.90;0.90;;;19.70;99.30;;;;;;5055945;28;20206;-60
2022/07/18 01:02:29;;;;;;;0.77;0.77;;;19.70;99.40;;;;;;5037253;28;20215;-62
2022/07/18 01:04:56;;;;;;;0.93;0.60;;;19.70;99.30;;;;;;5059951;28;20211;-63
2022/07/18 01:07:23;;;;;;;0.55;0.55;;;19.70;99.40;;;;;;5059764;28;20200;-61
2022/07/18 01:09:51;;;;;;;0.70;0.70;;;19.70;99.60;;;;;;5064256;28;20220;-61
2022/07/18 01:12:18;;;;;;;0.88;0.88;;;19.70;99.50;;;;;;5064151;28;20671;-61
2022/07/18 01:14:46;;;;;;;0.70;0.70;;;19.60;99.40;;;;;;5052965;28;20200;-60
2022/07/18 01:17:15;;;;;;;0.63;0.63;;;19.60;99.60;;;;;;5056041;28;20294;-61
2022/07/18 01:19:42;;;;;;;0.80;0.80;;;19.60;99.60;;;;;;5060172;28;20308;-62
2022/07/18 01:22:10;;;;;;;0.60;0.60;;;19.60;99.60;;;;;;5057277;28;20203;-61
2022/07/18 01:24:38;;;;;;;0.80;0.80;;;19.60;99.50;;;;;;5050744;28;20200;-61
2022/07/18 01:27:04;;;;;;;0.60;0.60;;;19.50;99.50;;;;;;5062183;28;20262;-61
2022/07/18 01:29:31;;;;;;;0.80;0.80;;;19.50;99.40;;;;;;5056499;28;20227;-60
2022/07/18 01:32:04;;;;;;;0.70;0.70;;;19.60;99.40;;;;;;5064024;28;20267;-62
2022/07/18 01:34:31;;;;;;;2.25;0.77;;;19.60;99.40;;;;;;5067349;28;20670;-62
2022/07/18 01:36:58;;;;;;;0.77;0.70;;;19.60;99.40;;;;;;5055449;28;20713;-61
2022/07/18 01:39:27;;;;;;;0.70;0.70;;;19.50;99.20;;;;;;5064378;28;20233;-62
2022/07/18 01:41:57;;;;;;;0.70;0.70;;;19.50;99.20;;;;;;5062475;28;20286;-62
2022/07/18 01:44:24;;;;;;;0.60;0.60;;;19.50;99.30;;;;;;5061217;28;20219;-64
2022/07/18 01:46:51;;;;;;;0.65;0.65;;;19.40;99.30;;;;;;5055686;28;20206;-61
2022/07/18 01:49:18;;;;;;;0.80;0.80;;;19.40;99.40;;;;;;5057992;28;20665;-63
2022/07/18 01:51:46;;;;;;;1.20;0.70;;;19.30;99.40;;;;;;5052398;28;20291;-62
2022/07/18 01:54:14;;;;;;;0.70;0.70;;;19.30;99.30;;;;;;5060897;28;20282;-61
2022/07/18 01:56:42;;;;;;;0.68;0.68;;;19.40;99.80;;;;;;5054374;28;20208;-61
2022/07/18 01:59:09;;;;;;;0.60;0.60;;;19.30;99.50;;;;;;5064654;28;20233;-61
2022/07/18 02:01:36;;;;;;;1.52;0.90;;;19.20;99.40;;;;;;5055250;28;20208;-62
2022/07/18 02:04:03;;;;;;;0.57;0.57;;;19.20;99.40;;;;;;5053773;28;20705;-60
2022/07/18 02:06:30;;;;;;;0.73;0.73;;;19.20;99.50;;;;;;5057920;28;20312;-61
2022/07/18 02:08:57;;;;;;;0.70;0.70;;;19.20;99.50;;;;;;5056489;28;20306;-62
2022/07/18 02:11:24;;;;;;;0.57;0.57;;;19.20;99.60;;;;;;5063003;28;20297;-62
2022/07/18 02:13:53;;;;;;;0.80;0.80;;;19.10;99.60;;;;;;5056667;28;20199;-62
2022/07/18 02:16:20;;;;;;;0.70;0.70;;;19.10;99.70;;;;;;5063710;28;20306;-62
2022/07/18 02:18:47;;;;;;;0.50;0.50;;;19.10;99.80;;;;;;5059336;28;20313;-61
2022/07/18 02:21:14;;;;;;;0.60;0.60;;;19.10;99.90;;;;;;5061763;28;20654;-61
2022/07/18 02:23:42;;;;;;;0.60;0.60;;;19.00;99.80;;;;;;5058574;28;20230;-61
2022/07/18 02:26:09;;;;;;;0.50;0.50;;;19.10;99.90;;;;;;5059075;28;20227;-61
2022/07/18 02:28:36;;;;;;;0.60;0.60;;;19.00;99.90;;;;;;5064247;28;20398;-61
2022/07/18 02:31:05;;;;;;;0.50;0.50;;;18.90;99.80;;;;;;5057715;28;20203;-61
2022/07/18 02:33:33;;;;;;;0.55;0.55;;;19.00;99.90;;;;;;5065162;28;20203;-61
2022/07/18 02:36:00;;;;;;;0.73;0.73;;;19.00;99.90;;;;;;5054353;28;20751;-61
2022/07/18 02:38:27;;;;;;;0.80;0.80;;;18.90;99.80;;;;;;5065280;28;20233;-61
2022/07/18 02:40:54;;;;;;;0.70;0.70;;;18.90;99.90;;;;;;5058718;28;20204;-61
2022/07/18 02:43:21;;;;;;;0.60;0.60;;;18.90;99.90;;;;;;5061224;28;20306;-61
2022/07/18 02:45:48;;;;;;;1.75;0.60;;;18.90;99.80;;;;;;5059468;28;20224;-61
2022/07/18 02:48:16;;;;;;;0.77;0.77;;;18.90;99.90;;;;;;5069495;28;20705;-62
2022/07/18 02:50:43;;;;;;;0.80;0.80;;;18.90;99.90;;;;;;5072407;28;20207;-61
2022/07/18 02:53:09;;;;;;;0.60;0.60;;;18.80;99.90;;;;;;5054905;28;20283;-61
2022/07/18 02:55:36;;;;;;;0.80;0.80;;;18.80;99.90;;;;;;5069890;28;20239;-61
2022/07/18 02:58:03;;;;;;;0.57;0.57;;;18.80;99.90;;;;;;5057876;28;20350;-62
2022/07/18 03:00:30;;;;;;;0.60;0.60;;;18.80;99.90;;;;;;5084435;22;20227;-60
2022/07/18 03:02:57;;;;;;;0.70;0.70;;;18.80;99.90;;;;;;5087341;28;20301;-60
2022/07/18 03:05:25;;;;;;;0.63;0.63;;;18.80;99.90;;;;;;5082430;28;20720;-59
2022/07/18 03:07:52;;;;;;;0.50;0.50;;;18.80;99.90;;;;;;5084704;28;20279;-60
2022/07/18 03:10:19;;;;;;;0.60;0.60;;;18.80;99.90;;;;;;5087823;28;20314;-59
2022/07/18 03:12:46;;;;;;;0.80;0.80;;;18.80;99.90;;;;;;5083959;28;20195;-59
2022/07/18 03:15:12;;;;;;;0.60;0.60;;;18.80;99.90;;;;;;5081408;28;20250;-59
2022/07/18 03:17:39;;;;;;;0.70;0.70;;;18.80;99.90;;;;;;5088578;28;20230;-60
2022/07/18 03:20:07;;;;;;;0.65;0.65;;;18.80;99.90;;;;;;5081768;28;20617;-60
2022/07/18 03:22:35;;;;;;;0.68;0.68;;;18.80;99.90;;;;;;5086936;28;20203;-60
2022/07/18 03:25:02;;;;;;;0.80;0.80;;;18.70;99.90;;;;;;5080193;28;20225;-60
2022/07/18 03:27:29;;;;;;;0.60;0.60;;;18.70;99.90;;;;;;5086027;28;20303;-60
2022/07/18 03:29:56;;;;;;;0.85;0.85;;;18.60;99.90;;;;;;5081304;28;20313;-60
2022/07/18 03:32:23;;;;;;;0.73;0.60;;;18.60;99.90;;;;;;5085814;28;20198;-60
2022/07/18 03:34:49;;;;;;;0.75;0.75;;;18.60;99.90;;;;;;5089958;28;20655;-60
2022/07/18 03:37:16;;;;;;;0.70;0.70;;;18.70;99.90;;;;;;5082140;28;20661;-60
2022/07/18 03:39:44;;;;;;;0.90;0.90;;;18.60;99.90;;;;;;5088881;28;20312;-60
2022/07/18 03:42:11;;;;;;;0.60;0.60;;;18.60;99.90;;;;;;5082441;28;21632;-59
2022/07/18 03:44:38;;;;;;;0.65;0.65;;;18.60;99.90;;;;;;5073480;28;20311;-61
2022/07/18 03:47:05;;;;;;;0.82;0.82;;;18.60;99.90;;;;;;5085265;28;20209;-59
2022/07/18 03:49:32;;;;;;;0.63;0.63;;;18.60;99.90;;;;;;5082097;28;20755;-59
2022/07/18 03:51:59;;;;;;;1.77;0.75;;;18.60;99.90;;;;;;5080082;28;20203;-61
2022/07/18 03:54:26;;;;;;;0.63;0.63;;;18.70;99.90;;;;;;5072507;28;20196;-61
2022/07/18 03:56:54;;;;;;;0.90;0.90;;;18.60;99.90;;;;;;5084746;28;20316;-61
2022/07/18 03:59:21;;;;;;;1.02;0.90;;;18.60;99.90;;;;;;5074781;28;20230;-59
2022/07/18 04:01:47;;;;;;;0.70;0.70;;;18.60;99.90;;;;;;5074126;28;20286;-59
2022/07/18 04:04:14;;;;;;;0.77;0.77;;;18.60;99.90;;;;;;5081864;28;20223;-60
2022/07/18 04:06:41;;;;;;;0.80;0.80;;;18.60;99.90;;;;;;5083470;28;20585;-60
2022/07/18 04:09:08;;;;;;;0.68;0.60;;;18.50;99.90;;;;;;5085660;28;20618;-60
2022/07/18 04:11:35;;;;;;;0.68;0.68;;;18.50;99.90;;;;;;5084409;28;20211;-59
2022/07/18 04:14:03;;;;;;;0.73;0.73;;;18.50;99.90;;;;;;5080802;28;20209;-59
2022/07/18 04:16:30;;;;;;;0.90;0.90;;;18.50;99.90;;;;;;5081846;28;20683;-60
2022/07/18 04:18:57;;;;;;;0.75;0.65;;;18.50;99.90;;;;;;5085059;28;20547;-60
2022/07/18 04:21:24;;;;;;;1.20;0.70;;;18.50;99.90;;;;;;5081809;28;20252;-59
2022/07/18 04:23:52;;;;;;;0.70;0.70;;;18.50;99.90;;;;;;5084434;28;20281;-61
2022/07/18 04:26:19;;;;;;;0.50;0.50;;;18.60;99.90;;;;;;5089751;28;20680;-59
2022/07/18 04:28:46;;;;;;;0.73;0.73;;;18.60;99.90;;;;;;5096786;28;20584;-61
2022/07/18 04:31:14;;;;;;;0.60;0.60;;;18.60;99.90;;;;;;5082065;28;20306;-60
2022/07/18 04:33:41;;;;;;;0.75;0.68;;;18.70;99.90;;;;;;5072320;28;20196;-59
2022/07/18 04:36:08;;;;;;;0.70;0.70;;;18.60;99.90;;;;;;5070946;28;20633;-60
2022/07/18 04:38:37;;;;;;;0.80;0.80;;;18.60;99.90;;;;;;5070125;28;20291;-59
2022/07/18 04:41:04;;;;;;;0.50;0.50;;;18.70;99.90;;;;;;5083111;28;20215;-59
2022/07/18 04:43:31;;;;;;;0.90;0.90;;;18.70;99.90;;;;;;5071823;28;20227;-61
2022/07/18 04:45:58;;;;;;;0.70;0.70;;;18.80;99.90;;;;;;5073524;28;20739;-60
2022/07/18 04:48:26;;;;;;;0.70;0.70;;;18.80;99.90;;;;;;5070269;28;20203;-60
2022/07/18 04:50:53;;;;;;;0.70;0.70;;;18.80;99.90;;;;;;5084293;28;20254;-61
2022/07/18 04:53:20;;;;;;;0.68;0.68;;;18.80;99.90;;;;;;5075291;28;20632;-61
2022/07/18 04:55:46;;;;;;;0.60;0.60;;;18.90;99.90;;;;;;5066806;28;20211;-59
2022/07/18 04:58:13;;;;;;;0.60;0.60;;;19.00;99.90;;;;;;5074272;28;20195;-59
2022/07/18 05:00:40;;;;;;;0.90;0.90;;;19.00;99.90;;;;;;5067416;28;20327;-59
2022/07/18 05:03:07;;;;;;;0.68;0.68;;;19.10;99.90;;;;;;5081128;28;20230;-60
2022/07/18 05:05:35;;;;;;;0.80;0.80;;;19.20;99.90;;;;;;5067279;28;20595;-60
2022/07/18 05:08:02;;;;;;;2.47;1.00;;;19.30;99.90;;;;;;5087075;28;20293;-61
2022/07/18 05:10:29;;;;;;;0.75;0.75;;;19.40;99.90;;;;;;5082802;28;20226;-61
2022/07/18 05:12:56;;;;;;;1.08;1.00;;;19.40;99.90;;;;;;5080788;28;20286;-61
2022/07/18 05:15:24;;;;;;;1.05;0.88;;;19.50;99.90;;;;;;5078477;28;20199;-61
2022/07/18 05:17:52;;;;;;;1.00;0.88;;;19.50;99.90;;;;;;5081418;28;20585;-61
2022/07/18 05:20:20;;;;;;;0.90;0.90;;;19.60;99.90;;;;;;5084936;28;20585;-59
2022/07/18 05:22:49;;;;;;;1.00;1.00;;;19.70;99.90;;;;;;5082041;28;20203;-59
2022/07/18 05:25:16;;;;;;;0.90;0.90;;;19.90;99.90;;;;;;5073831;28;20638;-59
2022/07/18 05:27:43;;;;;;;1.17;1.17;;;19.90;99.90;;;;;;5079358;28;20330;-59
2022/07/18 05:30:12;;;;;;;1.00;1.00;;;19.90;99.90;;;;;;5072763;28;20299;-60
2022/07/18 05:32:39;;;;;;;0.75;0.75;;;19.90;99.90;;;;;;5073265;28;20248;-61
2022/07/18 05:35:08;;;;;;;1.10;1.10;;;20.00;99.90;;;;;;5069671;28;20242;-61
2022/07/18 05:37:37;;;;;;;0.90;0.90;;;20.20;99.90;;;;;;5077758;28;20293;-60
2022/07/18 05:40:07;;;;;;;0.98;0.98;;;20.30;99.90;;;;;;5071877;28;20579;-59
2022/07/18 05:42:34;;;;;;;0.98;0.95;;;20.30;99.90;;;;;;5070190;28;20203;-62
2022/07/18 05:45:01;;;;;;;1.15;1.00;;;20.30;99.90;;;;;;5071232;28;20219;-59
2022/07/18 05:47:28;;;;;;;0.90;0.90;;;20.50;99.90;;;;;;5069490;28;20199;-60
2022/07/18 05:49:55;;;;;;;0.98;0.90;;;20.70;99.90;;;;;;5073733;28;20222;-59
2022/07/18 05:52:21;;;;;;;1.33;1.20;;;20.80;99.90;;;;;;5071988;28;20371;-61
2022/07/18 05:54:48;;;;;;;1.05;1.05;;;21.10;99.90;;;;;;5075716;28;20282;-59
2022/07/18 05:57:16;;;;;;;3.13;1.08;;;21.10;99.90;;;;;;5072161;28;20234;-60
2022/07/18 05:59:43;;;;;;;1.25;1.15;;;21.20;99.90;;;;;;5077881;28;20230;-61
2022/07/18 06:02:10;;;;;;;1.48;0.93;;;21.20;99.90;;;;;;5077257;28;20211;-61
2022/07/18 06:04:37;;;;;;;0.85;0.85;;;21.20;99.90;;;;;;5078173;28;20233;-61
2022/07/18 06:07:04;;;;;;;1.40;1.00;;;21.40;99.90;;;;;;5080692;28;20657;-59
2022/07/18 06:09:32;;;;;;;0.80;0.80;;;21.40;99.90;;;;;;5078376;28;20245;-62
2022/07/18 06:12:00;;;;;;;0.82;0.82;;;21.70;99.90;;;;;;5068616;28;20205;-60
2022/07/18 06:14:29;;;;;;;0.90;0.90;;;21.80;99.90;;;;;;5077904;28;20569;-60
2022/07/18 06:16:56;;;;;;;1.02;0.98;;;21.90;99.90;;;;;;5077327;28;20202;-61
2022/07/18 06:19:23;;;;;;;0.95;0.95;;;21.90;99.90;;;;;;5075378;28;20565;-61
2022/07/18 06:21:50;;;;;;;2.53;1.13;;;22.00;99.90;;;;;;5077386;28;20200;-62
2022/07/18 06:24:17;;;;;;;1.75;1.00;;;22.10;99.90;;;;;;5076829;28;20333;-61
2022/07/18 06:26:44;;;;;;;1.65;1.00;;;22.20;99.90;;;;;;5070583;28;20224;-61
2022/07/18 06:29:11;;;;;;;0.73;0.73;;;22.30;99.90;;;;;;5083230;28;20203;-60
2022/07/18 06:31:39;;;;;;;0.90;0.90;;;22.50;99.90;;;;;;5071256;28;20682;-62
2022/07/18 06:34:06;;;;;;;1.58;1.00;;;22.70;99.90;;;;;;5080825;28;20203;-60
2022/07/18 06:36:33;;;;;;;1.15;1.15;;;22.80;99.90;;;;;;5073524;28;20730;-62
2022/07/18 06:39:01;;;;;;;0.85;0.85;;;22.90;99.90;;;;;;5074699;28;20210;-61
2022/07/18 06:41:28;;;;;;;1.42;1.33;;;23.00;99.90;;;;;;5075766;28;20203;-62
2022/07/18 06:43:55;;;;;;;0.95;0.95;;;23.00;99.90;;;;;;5076058;28;20234;-61
2022/07/18 06:46:22;;;;;;;0.70;0.70;;;23.20;99.90;;;;;;5076055;28;20236;-60
2022/07/18 06:48:50;;;;;;;0.90;0.90;;;23.40;99.90;;;;;;5074210;28;20247;-61
2022/07/18 06:51:17;;;;;;;0.80;0.80;;;23.50;99.90;;;;;;5081738;28;20309;-61
2022/07/18 06:53:45;;;;;;;1.40;1.25;;;23.60;99.90;;;;;;5072973;28;20299;-59
2022/07/18 06:56:11;;;;;;;0.90;0.90;;;23.70;99.90;;;;;;5081167;28;20313;-60
2022/07/18 06:58:38;;;;;;;0.88;0.88;;;23.80;99.30;;;;;;5071579;28;20294;-60
2022/07/18 07:01:06;;;;;;;1.92;1.00;;;24.00;99.20;;;;;;5071346;28;20234;-60
2022/07/18 07:03:33;;;;;;;3.25;1.38;;;24.10;99.20;;;;;;5075401;28;20306;-60
2022/07/18 07:06:01;;;;;;;1.40;1.17;;;24.30;99.00;;;;;;5073771;28;20224;-61
2022/07/18 07:08:28;;;;;;;1.45;0.80;;;24.40;98.50;;;;;;5082775;28;20645;-60
2022/07/18 07:10:55;;;;;;;0.80;0.80;;;24.50;98.50;;;;;;5080991;28;20306;-60
2022/07/18 07:13:22;;;;;;;0.90;0.90;;;24.60;98.60;;;;;;5082373;28;20231;-60
2022/07/18 07:15:49;;;;;;;0.90;0.90;;;24.60;98.60;;;;;;5072899;28;20229;-60
2022/07/18 07:18:16;;;;;;;0.90;0.90;;;24.70;98.70;;;;;;5071886;28;20203;-61
2022/07/18 07:20:42;;;;;;;0.77;0.77;;;24.70;98.00;;;;;;5075926;28;20313;-61
2022/07/18 07:23:11;;;;;;;0.80;0.80;;;24.60;98.50;;;;;;5069337;28;20200;-61
2022/07/18 07:25:39;;;;;;;0.98;0.98;;;24.70;98.20;;;;;;5075733;28;21029;-61
2022/07/18 07:28:07;;;;;;;1.52;1.00;;;24.80;98.60;;;;;;5073622;28;20210;-61
2022/07/18 07:30:35;;;;;;;1.00;1.00;;;24.70;98.50;;;;;;5073583;28;20314;-61
2022/07/18 07:33:03;;;;;;;1.25;1.15;;;24.90;98.70;;;;;;5074431;28;20245;-59
2022/07/18 07:35:30;;;;;;;0.90;0.90;;;25.10;98.90;;;;;;5073218;28;20572;-59
2022/07/18 07:37:59;;;;;;;0.98;0.98;;;25.20;99.00;;;;;;5077661;28;20266;-59
2022/07/18 07:40:29;;;;;;;1.33;1.20;;;25.20;99.40;;;;;;5071594;28;20274;-60
2022/07/18 07:43:07;;;;;;;0.93;0.93;;;25.30;99.50;;;;;;5077373;28;20225;-60
2022/07/18 07:45:34;;;;;;;1.30;1.20;;;25.30;99.40;;;;;;5072048;28;20221;-60
2022/07/18 07:48:01;;;;;;;1.15;1.05;;;25.30;99.30;;;;;;5072431;28;20532;-60
2022/07/18 07:50:29;;;;;;;1.30;1.10;;;25.40;98.80;;;;;;5073115;28;20318;-60
2022/07/18 07:52:56;;;;;;;1.00;1.00;;;25.50;98.00;;;;;;5075086;28;20206;-60
2022/07/18 07:55:23;;;;;;;1.58;1.10;;;25.20;98.20;;;;;;5074784;28;20632;-62
2022/07/18 07:57:52;;;;;;;1.85;1.10;;;25.20;98.80;;;;;;5074436;28;20662;-61
2022/07/18 08:00:19;;;;;;;1.30;1.10;;;25.40;99.00;;;;;;5073582;28;20227;-60
2022/07/18 08:02:54;;;;;;;1.85;1.30;;;25.50;99.20;;;;;;5075677;28;20294;-61
2022/07/18 08:05:21;;;;;;;1.73;1.30;;;25.60;98.70;;;;;;5072591;28;20667;-60
2022/07/18 08:07:48;;;;;;;2.90;1.30;;;25.60;98.60;;;;;;5075031;28;20200;-60
2022/07/18 08:10:16;;;;;;;1.48;0.98;;;25.70;98.60;;;;;;5071048;28;20310;-61
2022/07/18 08:12:43;;;;;;;1.08;1.05;;;25.70;98.00;;;;;;5072982;28;20238;-61
2022/07/18 08:15:12;;;;;;;1.05;1.00;;;25.80;97.90;;;;;;5071597;28;20717;-60
2022/07/18 08:17:38;;;;;;;1.33;1.17;;;25.90;97.70;;;;;;5075362;28;20196;-61
2022/07/18 08:20:07;;;;;;;1.15;1.05;;;25.90;97.10;;;;;;5074508;28;20310;-62
2022/07/18 08:22:34;;;;;;;0.90;0.90;;;26.00;97.00;;;;;;5073247;28;20758;-60
2022/07/18 08:25:02;;;;;;;1.30;1.20;;;26.10;97.30;;;;;;5073825;28;20218;-61
2022/07/18 08:27:29;;;;;;;1.02;1.00;;;26.10;97.10;;;;;;5072681;28;20200;-60
2022/07/18 08:29:56;;;;;;;1.55;1.15;;;26.30;97.60;;;;;;5072785;28;20323;-61
2022/07/18 08:32:24;;;;;;;1.10;1.10;;;26.40;97.10;;;;;;5073865;28;20203;-61
2022/07/18 08:34:52;;;;;;;1.05;0.95;;;26.50;96.40;;;;;;5074153;28;20720;-61
2022/07/18 08:37:19;;;;;;;1.15;1.05;;;26.50;96.90;;;;;;5073515;28;20199;-60
2022/07/18 08:39:46;;;;;;;1.00;1.00;;;26.50;96.70;;;;;;5073024;28;20664;-61
2022/07/18 08:42:15;;;;;;;3.13;1.10;;;26.50;96.70;;;;;;5074472;28;20203;-60
2022/07/18 08:44:42;;;;;;;1.00;1.00;;;26.50;97.40;;;;;;5073378;28;20230;-62
2022/07/18 08:47:09;;;;;;;1.02;1.02;;;26.70;97.90;;;;;;5073327;28;20570;-60
2022/07/18 08:49:39;;;;;;;0.90;0.90;;;26.80;98.50;;;;;;5074566;28;20227;-59
2022/07/18 08:52:06;;;;;;;0.85;0.85;;;27.00;98.30;;;;;;5075468;28;20219;-60
2022/07/18 08:54:33;;;;;;;1.10;1.10;;;27.20;98.10;;;;;;5072568;28;20195;-62
2022/07/18 08:57:00;;;;;;;1.05;0.95;;;27.40;98.00;;;;;;5074290;28;20560;-61
2022/07/18 08:59:27;;;;;;;0.70;0.70;;;27.40;97.80;;;;;;5072795;28;20314;-62
2022/07/18 09:01:54;;;;;;;1.20;1.08;;;27.50;98.00;;;;;;5073458;28;20657;-60
2022/07/18 09:04:35;;;;;;;1.48;1.00;;;27.60;98.00;;;;;;5071872;28;20203;-60
2022/07/18 09:07:04;;;;;;;1.00;1.00;;;27.60;97.80;;;;;;5070970;28;20202;-61
2022/07/18 09:09:31;;;;;;;0.90;0.90;;;27.80;98.10;;;;;;5084398;28;20706;-60
2022/07/18 09:12:01;;;;;;;2.50;1.20;;;27.90;97.70;;;;;;5073816;28;20199;-61
2022/07/18 09:14:34;;;;;;;0.80;0.80;;;28.00;97.50;;;;;;5079271;28;20297;-60
2022/07/18 09:17:03;;;;;;;0.93;0.93;;;28.10;97.60;;;;;;5072044;28;20205;-60
2022/07/18 09:19:30;;;;;;;1.05;1.02;;;28.00;97.70;;;;;;5083624;28;20597;-61
2022/07/18 09:22:16;;;;;;;1.33;1.00;;;28.20;97.60;;;;;;5083303;28;20667;-61
2022/07/18 09:24:51;;;;;;;1.20;1.10;;;28.20;97.50;;;;;;5082013;28;20293;-61
2022/07/18 09:27:33;;;;;;;0.98;0.95;;;28.30;97.90;;;;;;5083384;28;20198;-62
2022/07/18 09:30:16;;;;;;;0.90;0.90;;;28.20;97.90;;;;;;5079369;28;20220;-62
2022/07/18 09:32:45;;;;;;;1.05;0.93;;;28.40;97.60;;;;;;5086470;28;20198;-61
2022/07/18 09:35:14;;;;;;;1.05;1.02;;;28.60;97.40;;;;;;5080287;28;20202;-60
2022/07/18 09:37:53;;;;;;;0.93;0.93;;;28.70;97.00;;;;;;5079556;28;20298;-59
2022/07/18 09:40:22;;;;;;;1.15;1.10;;;28.90;97.10;;;;;;5068657;28;20237;-59
2022/07/18 09:42:51;;;;;;;1.20;1.10;;;28.80;96.80;;;;;;5070799;28;20226;-60
2022/07/18 09:45:23;;;;;;;1.75;0.80;;;28.90;96.40;;;;;;5070603;28;20220;-60
2022/07/18 09:47:51;;;;;;;1.15;1.10;;;29.00;96.10;;;;;;5063588;28;20273;-60
2022/07/18 09:50:23;;;;;;;1.10;1.00;;;28.90;95.90;;;;;;5072654;28;20227;-60
2022/07/18 09:53:07;;;;;;;1.10;0.98;;;29.00;96.10;;;;;;5086695;22;20280;-61
2022/07/18 09:55:34;;;;;;;1.50;1.17;;;29.20;95.90;;;;;;5072239;28;20195;-61
2022/07/18 09:58:05;;;;;;;1.30;0.98;;;29.40;95.50;;;;;;5069643;28;20222;-62
2022/07/18 10:00:39;;;;;;;1.05;0.95;;;29.40;95.40;;;;;;5068540;28;20231;-61
2022/07/18 10:03:08;;;;;;;3.20;1.17;;;29.50;95.20;;;;;;5077319;28;20234;-61
2022/07/18 10:05:37;;;;;;;0.80;0.80;;;29.60;94.40;;;;;;5074870;28;20559;-61
2022/07/18 10:08:07;;;;;;;0.90;0.90;;;29.70;94.60;;;;;;5075607;28;20779;-62
2022/07/18 10:10:34;;;;;;;2.15;1.15;;;29.80;94.30;;;;;;5074246;28;20207;-62
2022/07/18 10:13:03;;;;;;;1.00;1.00;;;29.80;94.00;;;;;;5075447;28;20229;-62
2022/07/18 10:15:32;;;;;;;1.08;1.08;;;30.00;94.40;;;;;;5074484;28;20206;-61
2022/07/18 10:18:00;;;;;;;0.88;0.88;;;30.20;93.90;;;;;;5075412;28;20289;-61
2022/07/18 10:20:30;;;;;;;1.00;1.00;;;30.30;93.40;;;;;;5073300;28;20290;-61
2022/07/18 10:23:02;;;;;;;1.20;1.10;;;30.50;93.20;;;;;;5074425;28;20226;-61
2022/07/18 10:25:31;;;;;;;1.00;1.00;;;30.40;93.30;;;;;;5074307;28;20223;-62
2022/07/18 10:28:06;;;;;;;1.27;0.95;;;30.40;93.60;;;;;;5075072;28;20198;-60
2022/07/18 10:30:38;;;;;;;1.20;1.10;;;30.60;93.70;;;;;;5070980;28;20290;-61
2022/07/18 10:33:30;;;;;;;1.10;1.00;;;30.70;93.60;;;;;;5074805;28;20226;-61
2022/07/18 10:36:02;;;;;;;0.60;0.60;;;30.70;92.90;;;;;;5077853;28;20218;-62
2022/07/18 10:38:29;;;;;;;1.27;1.02;;;30.90;93.10;;;;;;5075070;28;20287;-62
2022/07/18 10:41:06;;;;;;;1.73;1.13;;;31.10;92.70;;;;;;5074530;28;20246;-61
2022/07/18 10:43:44;;;;;;;1.63;0.82;;;31.00;91.80;;;;;;5078552;28;20235;-61
2022/07/18 10:46:12;;;;;;;1.00;0.98;;;30.90;91.40;;;;;;5072868;28;20211;-61
2022/07/18 10:48:57;;;;;;;1.05;0.95;;;30.90;91.40;;;;;;5065321;28;20740;-62
2022/07/18 10:51:32;;;;;;;0.95;0.90;;;31.00;91.30;;;;;;5066479;28;20237;-62
2022/07/18 10:54:07;;;;;;;1.13;0.80;;;31.20;91.30;;;;;;5069923;28;20320;-61
2022/07/18 10:57:11;;;;;;;0.80;0.80;;;31.30;91.30;;;;;;5074880;28;20199;-62
2022/07/18 11:00:00;;;;;;;0.80;0.80;;;31.20;90.80;;;;;;5070480;28;20202;-61
2022/07/18 11:02:35;;;;;;;0.80;0.80;;;31.40;91.30;;;;;;5067507;28;20318;-60
2022/07/18 11:05:02;;;;;;;1.23;0.95;;;31.50;91.00;;;;;;5068215;28;20203;-63
2022/07/18 11:07:29;;;;;;;0.82;0.82;;;31.60;91.10;;;;;;5067058;28;20338;-62
2022/07/18 11:09:56;;;;;;;1.45;1.00;;;31.60;91.10;;;;;;5073235;28;20293;-61
2022/07/18 11:12:29;;;;;;;1.17;0.90;;;31.80;91.50;;;;;;5068438;28;20250;-61
2022/07/18 11:15:08;;;;;;;0.77;0.70;;;31.90;90.10;;;;;;5071260;28;20275;-61
2022/07/18 11:18:04;;;;;;;0.80;0.80;;;32.10;90.00;;;;;;5073260;28;20620;-60
2022/07/18 11:20:42;;;;;;;0.93;0.93;;;32.20;88.60;;;;;;5056331;28;20684;-62
2022/07/18 11:23:18;;;;;;;1.00;1.00;;;32.20;89.70;;;;;;5071907;28;20249;-62
2022/07/18 11:25:45;;;;;;;0.80;0.80;;;32.00;87.00;;;;;;5067003;28;20317;-64
2022/07/18 11:28:14;;;;;;;1.77;0.90;;;32.10;88.90;;;;;;5063656;28;20298;-62
2022/07/18 11:30:41;;;;;;;0.80;0.80;;;32.10;88.50;;;;;;5068544;28;20207;-65
2022/07/18 11:33:22;;;;;;;0.90;0.90;;;32.10;88.60;;;;;;5067376;28;20215;-64
2022/07/18 11:35:50;;;;;;;0.90;0.90;;;32.10;87.50;;;;;;5070376;28;20210;-62
2022/07/18 11:38:17;;;;;;;0.95;0.95;;;32.10;88.20;;;;;;5072965;28;20202;-64
2022/07/18 11:40:51;;;;;;;0.93;0.93;;;32.30;87.40;;;;;;5073094;28;20249;-63
2022/07/18 11:43:24;;;;;;;0.90;0.90;;;32.40;86.80;;;;;;5065403;28;20223;-64
2022/07/18 11:46:01;;;;;;;2.08;1.00;;;32.50;87.40;;;;;;5072010;28;20211;-64
2022/07/18 11:48:28;;;;;;;0.90;0.90;;;32.50;86.70;;;;;;5070275;28;20649;-62
2022/07/18 11:50:55;;;;;;;1.05;1.05;;;32.70;87.00;;;;;;5074645;28;20234;-64
2022/07/18 11:53:22;;;;;;;0.82;0.82;;;32.60;87.40;;;;;;5074400;28;20760;-62
2022/07/18 11:55:50;;;;;;;0.90;0.90;;;32.70;87.10;;;;;;5077839;28;20224;-65
2022/07/18 11:58:18;;;;;;;2.47;1.00;;;32.70;86.60;;;;;;5076973;28;20267;-64
2022/07/18 12:00:47;;;;;;;0.80;0.80;;;32.60;85.80;;;;;;5079846;28;20203;-64
2022/07/18 12:03:16;;;;;;;1.20;1.10;;;32.50;86.00;;;;;;5074915;28;20756;-63
2022/07/18 12:05:45;;;;;;;0.90;0.90;;;32.50;85.90;;;;;;5076042;28;20265;-63
2022/07/18 12:08:33;;;;;;;0.90;0.90;;;32.50;84.10;;;;;;5074696;28;20223;-62
2022/07/18 12:11:07;;;;;;;0.80;0.80;;;32.60;84.50;;;;;;5075509;28;20285;-63
2022/07/18 12:13:45;;;;;;;0.88;0.88;;;32.60;84.90;;;;;;5071804;28;20222;-62
2022/07/18 12:16:31;;;;;;;1.33;0.90;;;32.70;85.30;;;;;;5073111;28;20752;-62
2022/07/18 12:19:02;;;;;;;0.90;0.90;;;32.90;83.80;;;;;;5078706;28;20718;-62
2022/07/18 12:21:49;;;;;;;0.77;0.77;;;33.00;84.70;;;;;;5074148;28;20691;-64
2022/07/18 12:24:35;;;;;;;1.45;0.82;;;33.00;83.30;;;;;;5071040;28;20689;-63
2022/07/18 12:27:14;;;;;;;0.90;0.90;;;33.00;82.90;;;;;;5078795;28;20211;-63
2022/07/18 12:30:06;;;;;;;0.98;0.98;;;33.10;83.20;;;;;;5076357;28;20567;-63
2022/07/18 12:32:41;;;;;;;0.82;0.82;;;33.00;81.40;;;;;;5070194;28;20251;-61
2022/07/18 12:35:11;;;;;;;0.77;0.77;;;33.00;82.40;;;;;;5072438;28;20203;-61
2022/07/18 12:37:39;;;;;;;1.00;1.00;;;33.00;81.70;;;;;;5076987;28;20572;-62
2022/07/18 12:40:07;;;;;;;0.90;0.90;;;33.10;82.80;;;;;;5078479;28;20196;-62
2022/07/18 12:42:36;;;;;;;0.95;0.88;;;33.30;82.50;;;;;;5078521;28;20265;-63
2022/07/18 12:45:03;;;;;;;0.90;0.90;;;33.50;82.00;;;;;;5080631;28;20235;-63
2022/07/18 12:47:31;;;;;;;0.88;0.88;;;33.60;82.20;;;;;;5075728;28;20237;-63
2022/07/18 12:49:59;;;;;;;0.90;0.90;;;33.50;82.70;;;;;;5066201;28;21305;-64
2022/07/18 12:52:26;;;;;;;1.63;1.00;;;33.40;82.90;;;;;;5073243;28;20325;-62
2022/07/18 12:54:53;;;;;;;0.88;0.80;;;33.30;83.20;;;;;;5075256;28;20294;-64
2022/07/18 12:57:21;;;;;;;1.23;0.93;;;33.50;82.70;;;;;;5072143;28;20657;-63
2022/07/18 12:59:48;;;;;;;0.90;0.90;;;33.60;83.70;;;;;;5072168;28;20231;-64